| time (UTC) | temp C | wind direction | speed KPH | gust KPH | rain 1hr cm | rain 24hr cm | rain mn cm | humidity % | barometer mb |
| 20260504040018 | 13 | 287 | 1.6 | 3.2 | 0.00 | 1.32 | 0.00 | 78 | 1021.5 |
| 20260504035018 | 13 | 287 | 0.0 | 1.6 | 0.00 | 1.32 | 0.00 | 78 | 1021.5 |
| 20260504034018 | 13 | 287 | 0.0 | 3.2 | 0.00 | 1.32 | 0.00 | 77 | 1021.5 |
| 20260504033018 | 14 | 287 | 1.6 | 3.2 | 0.00 | 1.32 | 0.00 | 76 | 1021.5 |
| 20260504032018 | 14 | 287 | 3.2 | 4.8 | 0.00 | 1.32 | 0.00 | 76 | 1021.5 |
| 20260504031018 | 14 | 281 | 3.2 | 4.8 | 0.00 | 1.32 | 0.00 | 73 | 1021.5 |
| 20260504025018 | 15 | 273 | 1.6 | 3.2 | 0.00 | 1.32 | 0.00 | 71 | 1021.5 |
| 20260504024018 | 15 | 273 | 0.0 | 3.2 | 0.00 | 1.32 | 0.00 | 70 | 1021.5 |
| 20260504023018 | 16 | 273 | 0.0 | 3.2 | 0.00 | 1.32 | 0.00 | 70 | 1021.5 |
| 20260504022018 | 16 | 273 | 1.6 | 3.2 | 0.00 | 1.32 | 0.00 | 69 | 1021.5 |
| 20260504021018 | 16 | 273 | 0.0 | 4.8 | 0.00 | 1.32 | 0.00 | 68 | 1021.5 |
| 20260504020018 | 17 | 273 | 3.2 | 4.8 | 0.00 | 1.32 | 0.00 | 67 | 1021.5 |
| 20260504015018 | 17 | 273 | 3.2 | 4.8 | 0.00 | 1.32 | 0.00 | 66 | 1021.5 |
| 20260504014019 | 17 | 273 | 4.8 | 4.8 | 0.00 | 1.32 | 0.00 | 65 | 1021.5 |
| 20260504013018 | 17 | 259 | 3.2 | 4.8 | 0.00 | 1.32 | 0.00 | 63 | 1021.5 |
| 20260504012019 | 18 | 252 | 3.2 | 8.0 | 0.00 | 1.32 | 0.00 | 62 | 1021.5 |
| 20260504011018 | 18 | 307 | 3.2 | 9.7 | 0.00 | 1.32 | 0.00 | 60 | 1021.5 |
| 20260504010018 | 18 | 263 | 4.8 | 12.9 | 0.00 | 1.32 | 0.00 | 57 | 1021.5 |
| 20260504004018 | 20 | 5 | 0.0 | 1.6 | 0.00 | 1.32 | 0.00 | 50 | 1021.5 |
| 20260504002018 | 21 | 5 | 1.6 | 3.2 | 0.00 | 1.32 | 0.00 | 47 | 1021.5 |
| 20260504001019 | 22 | 5 | 0.0 | 4.8 | 0.00 | 1.32 | 0.00 | 46 | 1021.5 |
| 20260504000018 | 22 | 5 | 3.2 | 8.0 | 0.00 | 1.32 | 0.00 | 44 | 1021.5 |
| 20260503235019 | 23 | 1 | 4.8 | 8.0 | 0.00 | 1.32 | 0.00 | 42 | 1021.5 |
| 20260503233018 | 24 | 0 | 4.8 | 11.3 | 0.00 | 1.32 | 0.00 | 38 | 1021.5 |
| 20260503232019 | 24 | 350 | 6.4 | 12.9 | 0.00 | 1.32 | 0.00 | 37 | 1021.5 |
| 20260503225018 | 25 | 350 | 9.7 | 14.5 | 0.00 | 1.32 | 0.00 | 36 | 1021.5 |
| 20260503223018 | 25 | 325 | 11.3 | 14.5 | 0.00 | 1.32 | 0.00 | 35 | 1021.5 |
| 20260503221019 | 26 | 303 | 9.7 | 22.5 | 0.00 | 1.32 | 0.00 | 36 | 1021.5 |
| 20260503220019 | 26 | 340 | 6.4 | 14.5 | 0.00 | 1.32 | 0.00 | 36 | 1021.5 |
| 20260503215018 | 26 | 344 | 9.7 | 14.5 | 0.00 | 1.32 | 0.00 | 34 | 1021.5 |
| 20260503214018 | 26 | 315 | 12.9 | 19.3 | 0.00 | 1.32 | 0.00 | 36 | 1021.5 |
| 20260503213018 | 26 | 307 | 9.7 | 19.3 | 0.00 | 1.32 | 0.00 | 36 | 1021.5 |
| 20260503212019 | 26 | 341 | 8.0 | 20.9 | 0.00 | 1.32 | 0.00 | 34 | 1021.5 |
| 20260503211019 | 26 | 304 | 11.3 | 14.5 | 0.00 | 1.32 | 0.00 | 34 | 1021.5 |
| 20260503210019 | 26 | 19 | 4.8 | 11.3 | 0.00 | 1.32 | 0.00 | 36 | 1021.5 |
| 20260503205018 | 26 | 281 | 6.4 | 12.9 | 0.00 | 1.32 | 0.00 | 34 | 1021.5 |
| 20260503204018 | 26 | 315 | 4.8 | 20.9 | 0.00 | 1.32 | 0.00 | 36 | 1021.5 |
| 20260503203019 | 26 | 318 | 4.8 | 24.1 | 0.00 | 1.32 | 0.00 | 36 | 1021.5 |
| 20260503202018 | 26 | 302 | 4.8 | 19.3 | 0.00 | 1.32 | 0.00 | 31 | 1021.5 |
| 20260503201019 | 26 | 325 | 16.1 | 19.3 | 0.00 | 1.32 | 0.00 | 35 | 1021.5 |
| 20260503200018 | 26 | 344 | 12.9 | 19.3 | 0.00 | 1.32 | 0.00 | 36 | 1021.5 |
| 20260503194019 | 25 | 311 | 6.4 | 12.9 | 0.00 | 1.32 | 0.00 | 34 | 1021.5 |
| 20260503193019 | 25 | 351 | 8.0 | 22.5 | 0.00 | 1.32 | 0.00 | 35 | 1021.5 |
| 20260503191019 | 25 | 311 | 4.8 | 19.3 | 0.00 | 1.32 | 0.00 | 37 | 1021.5 |
| 20260503190019 | 25 | 313 | 14.5 | 20.9 | 0.00 | 1.32 | 0.00 | 37 | 1021.5 |
| 20260503185019 | 25 | 317 | 11.3 | 19.3 | 0.00 | 1.32 | 0.00 | 37 | 1021.5 |
| 20260503184019 | 25 | 296 | 11.3 | 25.7 | 0.00 | 1.32 | 0.00 | 40 | 1021.5 |
| 20260503182018 | 24 | 0 | 8.0 | 12.9 | 0.00 | 1.32 | 0.00 | 39 | 1021.5 |
| 20260503181019 | 24 | 311 | 6.4 | 19.3 | 0.00 | 1.32 | 0.00 | 38 | 1021.5 |
| 20260503180019 | 24 | 329 | 16.1 | 19.3 | 0.00 | 1.32 | 0.00 | 37 | 1021.5 |
| 20260503175019 | 24 | 350 | 4.8 | 19.3 | 0.00 | 1.32 | 0.00 | 38 | 1021.5 |
| 20260503174019 | 24 | 321 | 14.5 | 22.5 | 0.00 | 1.32 | 0.00 | 36 | 1021.5 |
| 20260503173019 | 24 | 325 | 11.3 | 20.9 | 0.00 | 1.32 | 0.00 | 38 | 1021.5 |
| 20260503172019 | 24 | 311 | 4.8 | 19.3 | 0.00 | 1.32 | 0.00 | 38 | 1021.5 |
| 20260503171019 | 24 | 329 | 9.7 | 16.1 | 0.00 | 1.32 | 0.00 | 38 | 1021.5 |
| 20260503131019 | 13 | 333 | 4.8 | 9.7 | 0.00 | 1.32 | 0.00 | 83 | 1021.5 |
| 20260503081020 | 8 | 336 | 0.0 | 1.6 | 0.00 | 1.85 | 0.00 | 85 | 1021.5 |
| 20260503072019 | 9 | 334 | 3.2 | 3.2 | 0.00 | 2.26 | 0.00 | 84 | 1021.5 |
| 20260503071019 | 9 | 334 | 3.2 | 4.8 | 0.00 | 2.29 | 0.00 | 84 | 1021.5 |
| 20260503055020 | 10 | 336 | 3.2 | 4.8 | 1.32 | 2.64 | 0.00 | 84 | 1021.5 |
| 20260503054020 | 10 | 336 | 3.2 | 4.8 | 1.32 | 2.64 | 0.00 | 84 | 1021.5 |
| 20260503053020 | 10 | 329 | 6.4 | 8.0 | 1.32 | 2.64 | 0.00 | 84 | 1021.5 |
| 20260503052019 | 10 | 339 | 4.8 | 4.8 | 1.32 | 2.64 | 0.00 | 84 | 1021.5 |
| 20260503051020 | 10 | 341 | 4.8 | 4.8 | 1.32 | 2.64 | 0.00 | 83 | 1021.5 |
| 20260503050020 | 10 | 342 | 4.8 | 4.8 | 0.00 | 3.63 | 0.00 | 83 | 1021.5 |
| 20260503044020 | 10 | 344 | 1.6 | 3.2 | 0.00 | 3.63 | 1.32 | 82 | 1021.5 |
| 20260503043020 | 11 | 344 | 3.2 | 4.8 | 0.00 | 3.63 | 1.32 | 81 | 1021.5 |
| 20260503042020 | 11 | 343 | 4.8 | 4.8 | 0.00 | 3.63 | 1.32 | 80 | 1021.5 |
| 20260503041020 | 11 | 343 | 1.6 | 1.6 | 0.00 | 3.63 | 1.32 | 79 | 1021.5 |